createdAt,value
2022-10-07T00:02:19.254Z,60.55
2022-10-07T00:04:46.473Z,60.97
2022-10-07T00:07:15.188Z,60.92
2022-10-07T00:09:43.504Z,60.88
2022-10-07T00:12:10.532Z,61.29
2022-10-07T00:14:37.479Z,61.45
2022-10-07T00:17:04.393Z,61.52
2022-10-07T00:19:31.887Z,61.30
2022-10-07T00:21:58.796Z,61.22
2022-10-07T00:24:25.878Z,61.57
2022-10-07T00:26:54.398Z,61.41
2022-10-07T00:29:24.166Z,61.27
2022-10-07T00:31:56.943Z,61.50
2022-10-07T00:34:25.063Z,61.60
2022-10-07T00:36:52.225Z,61.52
2022-10-07T00:39:19.190Z,61.60
2022-10-07T00:41:50.408Z,61.27
2022-10-07T00:44:39.586Z,61.54
2022-10-07T00:47:12.398Z,61.16
2022-10-07T00:49:42.751Z,61.53
2022-10-07T00:52:09.563Z,61.45
2022-10-07T00:54:37.626Z,61.36
2022-10-07T00:57:04.992Z,61.12
2022-10-07T00:59:33.393Z,61.16
2022-10-07T01:02:01.572Z,61.17
2022-10-07T01:04:28.769Z,61.01
2022-10-07T01:06:56.051Z,61.11
2022-10-07T01:09:23.076Z,61.26
2022-10-07T01:11:59.359Z,61.41
2022-10-07T01:14:40.131Z,61.14
2022-10-07T01:17:13.762Z,61.21
2022-10-07T01:20:06.275Z,61.86
2022-10-07T01:22:46.608Z,61.74
2022-10-07T01:25:28.510Z,61.61
2022-10-07T01:28:01.433Z,61.43
2022-10-07T01:30:31.924Z,61.31
2022-10-07T01:33:04.387Z,61.61
2022-10-07T01:35:35.640Z,61.44
2022-10-07T01:38:10.964Z,61.06
2022-10-07T01:40:44.213Z,61.17
2022-10-07T01:43:15.944Z,60.93
2022-10-07T01:45:43.249Z,61.04
2022-10-07T01:48:10.309Z,60.78
2022-10-07T01:50:39.079Z,60.55
2022-10-07T01:53:31.364Z,60.89
2022-10-07T01:56:13.150Z,60.95
2022-10-07T01:59:13.404Z,60.96
2022-10-07T02:01:47.442Z,60.75
2022-10-07T02:04:32.256Z,61.00
2022-10-07T02:07:09.563Z,60.46
2022-10-07T02:09:40.462Z,60.84
2022-10-07T02:12:15.463Z,60.94
2022-10-07T02:14:54.712Z,60.57
2022-10-07T02:17:28.598Z,60.43
2022-10-07T02:19:56.839Z,60.69
2022-10-07T02:22:28.434Z,60.43
2022-10-07T02:24:59.152Z,60.71
2022-10-07T02:27:31.283Z,60.61
2022-10-07T02:30:04.539Z,60.47
2022-10-07T02:32:36.225Z,60.44
2022-10-07T02:35:10.840Z,60.57
2022-10-07T02:37:38.594Z,60.35
2022-10-07T02:40:12.198Z,60.31
2022-10-07T02:42:48.249Z,60.52
2022-10-07T02:45:26.451Z,60.33
2022-10-07T02:47:59.350Z,60.53
2022-10-07T02:50:35.424Z,60.53
2022-10-07T02:53:04.244Z,60.28
2022-10-07T02:55:32.522Z,60.06
2022-10-07T02:58:01.970Z,60.25
2022-10-07T03:00:34.885Z,59.93
2022-10-07T03:03:05.148Z,59.89
2022-10-07T03:05:53.503Z,59.95
2022-10-07T03:08:21.929Z,60.15
2022-10-07T03:10:49.865Z,60.06
2022-10-07T03:13:17.332Z,59.93
2022-10-07T03:15:49.258Z,59.74
2022-10-07T03:18:28.176Z,59.93
2022-10-07T03:21:08.691Z,59.78
2022-10-07T03:23:35.658Z,59.81
2022-10-07T03:26:02.385Z,60.21
2022-10-07T03:28:35.203Z,59.87
2022-10-07T03:31:07.018Z,59.85
2022-10-07T03:33:37.317Z,59.62
2022-10-07T03:36:08.226Z,59.99
2022-10-07T03:38:36.209Z,60.14
2022-10-07T03:41:04.560Z,60.62
2022-10-07T03:43:31.457Z,60.78
2022-10-07T03:46:02.214Z,60.65
2022-10-07T03:48:30.853Z,61.13
2022-10-07T03:50:59.628Z,61.65
2022-10-07T03:53:29.663Z,62.04
2022-10-07T03:55:58.027Z,62.23
2022-10-07T03:58:24.858Z,62.02
2022-10-07T04:00:52.090Z,61.87
2022-10-07T04:03:18.979Z,62.04
2022-10-07T04:05:55.787Z,61.72
2022-10-07T04:08:27.900Z,62.56
2022-10-07T04:10:55.279Z,62.84
2022-10-07T04:13:22.104Z,63.02
2022-10-07T04:15:49.366Z,63.24
2022-10-07T04:18:16.825Z,63.96
2022-10-07T04:20:43.743Z,63.84
2022-10-07T04:23:12.479Z,63.92
2022-10-07T04:25:43.826Z,64.03
2022-10-07T04:28:17.348Z,64.41
2022-10-07T04:30:51.028Z,63.65
2022-10-07T04:33:21.492Z,63.36
2022-10-07T04:35:50.387Z,63.68
2022-10-07T04:38:18.400Z,63.39
2022-10-07T04:40:50.040Z,62.88
2022-10-07T04:43:26.871Z,63.39
2022-10-07T04:46:06.546Z,63.20
2022-10-07T04:48:36.414Z,63.08
2022-10-07T04:51:05.101Z,63.24
2022-10-07T04:53:32.269Z,63.75
2022-10-07T04:56:00.923Z,63.68
2022-10-07T04:58:28.949Z,64.14
2022-10-07T05:00:57.365Z,63.98
2022-10-07T05:03:26.734Z,64.24
2022-10-07T05:05:54.943Z,64.46
2022-10-07T05:08:24.736Z,63.81
2022-10-07T05:10:56.388Z,63.76
2022-10-07T05:13:26.463Z,63.13
2022-10-07T05:15:55.986Z,62.90
2022-10-07T05:18:25.139Z,63.32
2022-10-07T05:20:53.080Z,62.77
2022-10-07T05:23:27.288Z,62.66
2022-10-07T05:25:58.458Z,62.37
2022-10-07T05:28:27.597Z,62.53
2022-10-07T05:31:02.602Z,62.56
2022-10-07T05:33:31.588Z,62.68
2022-10-07T05:35:59.137Z,62.40
2022-10-07T05:38:26.842Z,62.36
2022-10-07T05:40:59.750Z,62.23
2022-10-07T05:43:33.372Z,62.99
2022-10-07T05:46:01.769Z,63.16
2022-10-07T05:48:36.586Z,63.15
2022-10-07T05:51:06.163Z,63.42
2022-10-07T05:53:32.826Z,63.49
2022-10-07T05:56:04.332Z,63.67
2022-10-07T05:58:34.951Z,63.52
2022-10-07T06:01:11.443Z,63.50
2022-10-07T06:03:40.726Z,63.51
2022-10-07T06:06:08.972Z,63.26
2022-10-07T06:08:35.995Z,63.03
2022-10-07T06:11:23.247Z,62.62
2022-10-07T06:13:53.910Z,62.42
2022-10-07T06:16:21.950Z,62.83
2022-10-07T06:18:50.576Z,62.39
2022-10-07T06:21:20.205Z,62.88
2022-10-07T06:23:51.637Z,63.12
2022-10-07T06:26:22.058Z,63.21
2022-10-07T06:28:49.053Z,63.46
2022-10-07T06:31:25.106Z,63.35
2022-10-07T06:33:57.005Z,63.77
2022-10-07T06:36:24.075Z,64.29
2022-10-07T06:38:55.316Z,63.77
2022-10-07T06:41:27.085Z,63.96
2022-10-07T06:44:06.243Z,63.51
2022-10-07T06:46:35.613Z,63.40
2022-10-07T06:49:02.745Z,63.59
2022-10-07T06:51:30.141Z,63.23
2022-10-07T06:53:59.702Z,63.24
2022-10-07T06:56:27.236Z,63.71
2022-10-07T06:58:54.002Z,63.33
2022-10-07T07:01:31.293Z,63.57
2022-10-07T07:03:59.698Z,63.70
2022-10-07T07:06:26.487Z,63.86
2022-10-07T07:08:55.345Z,63.93
2022-10-07T07:11:37.843Z,63.78
2022-10-07T07:14:25.808Z,64.14
2022-10-07T07:16:59.905Z,64.42
2022-10-07T07:19:28.524Z,64.48
2022-10-07T07:21:56.244Z,64.73
2022-10-07T07:24:24.967Z,64.47
2022-10-07T07:26:52.391Z,64.49
2022-10-07T07:29:20.251Z,64.40
2022-10-07T07:31:54.850Z,64.64
2022-10-07T07:34:24.641Z,64.76
2022-10-07T07:36:53.640Z,64.46
2022-10-07T07:39:24.062Z,64.40
2022-10-07T07:42:03.537Z,64.48
2022-10-07T07:44:34.081Z,64.63
2022-10-07T07:47:03.355Z,64.72
2022-10-07T07:49:32.224Z,64.66
2022-10-07T07:52:00.785Z,64.82
2022-10-07T07:54:32.473Z,64.75
2022-10-07T07:56:59.776Z,65.02
2022-10-07T07:59:31.118Z,64.41
2022-10-07T08:01:58.570Z,64.81
2022-10-07T08:04:25.953Z,64.57
2022-10-07T08:06:53.752Z,64.38
2022-10-07T08:09:22.409Z,63.99
2022-10-07T08:11:49.421Z,63.73
2022-10-07T08:14:17.604Z,63.12
2022-10-07T08:16:47.472Z,62.69
2022-10-07T08:19:15.516Z,62.58
2022-10-07T08:21:42.512Z,62.71
2022-10-07T08:24:15.534Z,62.14
2022-10-07T08:26:43.687Z,62.15
2022-10-07T08:29:13.571Z,62.00
2022-10-07T08:31:42.747Z,62.03
2022-10-07T08:34:11.091Z,61.96
2022-10-07T08:36:38.225Z,61.79
2022-10-07T08:39:05.449Z,61.66
2022-10-07T08:41:47.404Z,61.19
2022-10-07T08:44:23.659Z,61.00
2022-10-07T08:46:57.183Z,60.88
2022-10-07T08:49:36.472Z,60.83
2022-10-07T08:52:15.359Z,60.77
2022-10-07T08:54:42.017Z,60.70
2022-10-07T08:57:16.926Z,60.42
2022-10-07T08:59:50.221Z,60.33
2022-10-07T09:02:28.537Z,59.90
2022-10-07T09:05:05.749Z,59.83
2022-10-07T09:07:35.852Z,59.60
2022-10-07T09:10:15.507Z,59.74
2022-10-07T09:12:49.169Z,60.35
2022-10-07T09:15:19.790Z,60.72
2022-10-07T09:17:54.594Z,60.16
2022-10-07T09:20:26.755Z,60.11
2022-10-07T09:22:57.513Z,60.05
2022-10-07T09:25:26.534Z,60.08
2022-10-07T09:27:57.100Z,59.46
2022-10-07T09:30:25.918Z,59.13
2022-10-07T09:32:55.998Z,58.81
2022-10-07T09:35:24.374Z,58.40
2022-10-07T09:37:57.994Z,58.16
2022-10-07T09:40:33.876Z,58.96
2022-10-07T09:43:09.400Z,59.58
2022-10-07T09:45:37.706Z,59.21
2022-10-07T09:48:07.727Z,58.82
2022-10-07T09:50:38.063Z,58.49
2022-10-07T09:53:15.317Z,57.92
2022-10-07T09:55:43.604Z,57.58
2022-10-07T09:58:20.275Z,57.00
2022-10-07T10:00:48.885Z,56.80
2022-10-07T10:03:16.920Z,56.43
2022-10-07T10:05:53.737Z,55.76
2022-10-07T10:08:24.655Z,55.45
2022-10-07T10:10:53.588Z,55.13
2022-10-07T10:13:27.151Z,55.17
2022-10-07T10:15:54.178Z,55.22
2022-10-07T10:18:36.598Z,54.69
2022-10-07T10:21:23.616Z,53.74
2022-10-07T10:23:53.040Z,54.04
2022-10-07T10:26:37.679Z,54.04
2022-10-07T10:29:17.772Z,53.51
2022-10-07T10:31:59.823Z,52.02
2022-10-07T10:34:36.304Z,51.18
2022-10-07T10:37:14.410Z,51.84
2022-10-07T10:39:59.499Z,50.64
2022-10-07T10:42:40.060Z,50.54
2022-10-07T10:45:15.992Z,50.97
2022-10-07T10:48:06.287Z,51.72
2022-10-07T10:50:45.562Z,52.18
2022-10-07T10:53:42.384Z,51.32
2022-10-07T10:56:28.075Z,50.31
2022-10-07T11:24:12.733Z,49.52
2022-10-07T11:38:44.208Z,49.35
2022-10-07T11:44:45.997Z,48.97
2022-10-07T11:47:17.904Z,49.42
2022-10-07T11:50:14.466Z,49.52
2022-10-07T12:09:36.431Z,50.52
2022-10-07T12:12:04.644Z,50.58
2022-10-07T16:42:02.913Z,57.76
2022-10-07T16:44:30.552Z,57.87
2022-10-07T17:25:28.349Z,58.43
